This is the latest recevied weather packets stored in our database for station/object 9M4GHZ-13. If no packets are shown the sender has not sent any weather packets the latest 10 day(s).
| Time | Temp. | Humidity | Pressure | Rain* | Wind** | Luminosity | Snow |
|---|---|---|---|---|---|---|---|
| 1777537804 | 30° C | 79% | 1007 hPa | - | - | - | - |
| 1777537204 | 30° C | 80% | 1006.8 hPa | - | - | - | - |
| 1777536605 | 30° C | 79% | 1007 hPa | - | - | - | - |
| 1777536004 | 29.44° C | 79% | 1007 hPa | - | - | - | - |
| 1777535404 | 30° C | 79% | 1007.1 hPa | - | - | - | - |
| 1777534805 | 30° C | 79% | 1007.3 hPa | - | - | - | - |
| 1777534204 | 30° C | 78% | 1007 hPa | - | - | - | - |
| 1777533604 | 30° C | 77% | 1007.1 hPa | - | - | - | - |
| 1777533004 | 30° C | 77% | 1007.1 hPa | - | - | - | - |
| 1777532403 | 30° C | 76% | 1007 hPa | - | - | - | - |
| 1777531803 | 30° C | 77% | 1007.2 hPa | - | - | - | - |
| 1777531204 | 30.56° C | 76% | 1007.4 hPa | - | - | - | - |
| 1777530606 | 30.56° C | 74% | 1007.7 hPa | - | - | - | - |
| 1777530004 | 31.11° C | 68% | 1007.7 hPa | - | - | - | - |
| 1777529404 | 31.67° C | 64% | 1007.8 hPa | - | - | - | - |
| 1777528804 | 31.67° C | 67% | 1007.8 hPa | - | - | - | - |
| 1777528204 | 31.11° C | 70% | 1008.1 hPa | - | - | - | - |
| 1777527605 | 30.56° C | 71% | 1008 hPa | - | - | - | - |
| 1777527005 | 30.56° C | 73% | 1008.2 hPa | - | - | - | - |
| 1777526404 | 31.11° C | 71% | 1008.7 hPa | - | - | - | - |
| 1777525804 | 31.11° C | 74% | 1008.6 hPa | - | - | - | - |
| 1777525204 | 30.56° C | 75% | 1008.7 hPa | - | - | - | - |
| 1777524604 | 30.56° C | 73% | 1008.7 hPa | - | - | - | - |
| 1777524004 | 30.56° C | 73% | 1009 hPa | - | - | - | - |
| 1777523405 | 30° C | 76% | 1009 hPa | - | - | - | - |
* Rain since midnight (hover to see other rain measurements)
** Current wind speed in m/s (hover to see current wind gust speed)